Ironwood, MI

1:59 PM CST on March 02, 2015 (GMT -0600)
Kennedy Memorial | Change Station
CLOSE
Current Station
Airport
Location: Ashland,
Elevation: 823 ft
Nearby Weather Stations

Elev 823 ft 46.55 °N, 90.92 °W | Updated 6 minutes ago

Clear
Clear
28 °F
Feels Like 19 °F
N
10
Wind Variable Wind from SW

Today
High -- | Low -- °F
--% Chance of Precip.
Yesterday
High -- | Low -- °F
Precip. -- in
6:38 AM 5:47 PM
Waxing Gibbous, 92% visible
Pressure 30.38 in
Visibility 10.0 miles
Clouds Clear
Windchill 19 °F
Dew Point 5 °F
Humidity 38%
Rainfall 0.00 in
Snow Depth Not available.
UV 4 out of 12
Pollen .10 out of 12
Air Quality Not available.
Flu Activity Not available.
METAR KASX 021953Z AUTO 23009KT 10SM CLR M02/M15 A3033 RMK AO2 PRESFR SLP286 T10221150 $

More Conditions Fewer Conditions

Pressure 30.38 in
Visibility 10.0 miles
Clouds Clear
Windchill 19 °F
Dew Point 5 °F
Humidity 38%
Rainfall 0.00 in
Snow Depth Not available.
UV 4 out of 12
Pollen .10 out of 12
Air Quality Not available.
Flu Activity Not available.
METAR KASX 021953Z AUTO 23009KT 10SM CLR M02/M15 A3033 RMK AO2 PRESFR SLP286 T10221150 $

More Conditions Fewer Conditions

10-Day Weather Forecast

Almanac

Astronomy

Mar. 02, 2015 Rise Set
Actual Time
Civil Twilight
Nautical Twilight
Astronomical Twilight
Moon
Length of Visible Light
Length of Day
Tomorrow will be .
, % of the Moon is Illuminated

Today's Extremes

State Highs State Lows

Community

WunderPhotos

Upload Photos

1,801,922 photos uploaded!

WunderBlogs® & News

Nearby

Air Quality

  Air Quality AQ Index Pollutant
Not available.

Snow Depth

Station Depth Elevation

Earthquake Activity

City Distance Mag. Time & Date
Minimum magnitude displayed is 2.5.

Coastal Water Temperatures

Place Temperature

Nearby Weather Stations